Hauptseite
METAR-TAF:

METAR-TAF

Flughäfen :

RAF Linton-on-Ouse

Linton-on-Ouse, England

Breite: 54-03N, Länge: 001-15W, Höhe: 16 m

Beobachtung

Neuester Wetterbericht von vor 50 Minuten, um 15:50 UTC
Wind 9 kt aus West/Südwest
Temperatur 4°C
Luftfeuchtigkeit 87%
Luftdruck 992 hPa
Sichtweite 10 km oder mehr

METAR: EGXU 251550Z AUTO 24009KT 9999 BKN070/// 04/02 Q0992 RERA

Zeit: 16:40 (16:40 UTC)

Prognose

Neuester Wetterbericht von vor 3 Stunden und 5 Minuten, um 13:35 UTC
Gültige Prognose vom 25 um 15 UTC bis 25 um 19 UTC
Wind 12 kt aus West
Sichtweite 10 km oder mehr
Leicht bewölkt in der Höhe von 2500 ft
Wahrscheinlichkeit 30% :
Zeitweise
vom 25 um 15 UTC bis 25 um 17 UTC
Sichtweite: 5000 m
Leicht bewölkt in der Höhe von 1000 ft
Durchbrochene Bewölkung in der Höhe von 1500 ft, Kumulonimbus.
Regenschauer

TAF: EGXU 251335Z 2515/2519 26012KT 9999 FEW025 PROB30 TEMPO 2515/2517 5000 SHRA FEW010 BKN015CB

Wetterbeobachtungen und Prognosen von mehr als 4000 Flughäfen (METAR und TAF Bericht).

Die verfügbaren Stationen werden durch gelbe und rote Markierungen auf der Karte dargestellt.

Führen Sie die Maus auf sie, um den Namen der Station zu sehen.

Darauf klicken, um die Beobachtung von Wetterbeobachtungen und Prognosen zu sehen.

Um die Karte zu ändern : klicken Sie auf den grünen Tasten mit einem schwarzen Kreuz Zum Vergrößern, auf den grünen Button mit einem Gedankenstrich zu verkleinern, oder auf die grünen Pfeile für benachbarte Karten.


METAR-TAF: